x

Dunkirk, Ny (dbln6) Weather Station

4:00am - Wed 29th Jul 2015 All times are CDT. -5 hours from GMT.

  • Wind
    6mph, 7mph gusts
  • Air Temp 72°f
  • Sea Pressure 1015.2mb
  • Dunkirk, Ny
  • Dunkirk, Ny

More Historic Weather Station data

Upgrade to MSW Pro to gain access to the past 30 days of data for over 8000 Wavebouys and Weather Stations around the globe.

Join Pro

Comparision Forecast

View Surf forecast
   
Wed 07/29 4:00am 6 7 mph 1015.2mb 72f
3:00am 2 3 mph 1015.7mb 74f
2:00am  -  1 mph 1015.5mb 74f
1:00am  -  1 mph 1015.9mb 75f
12:00am 3 5 mph 1016.1mb 74f
Tue 07/28 11:00pm 2 5 mph 1015.8mb 74f
10:00pm 6 7 mph 1015.8mb 75f
9:00pm 5 6 mph 1015.5mb 76f
8:00pm 3 5 mph 1015mb 80f
7:00pm 1 2 mph 1014.7mb 83f
6:00pm 2
mph
1015.6mb 82f
5:00pm 2
mph
1015.9mb 81f
4:00pm 1 2 mph 1015.9mb 83f
3:00pm 1 2 mph 1016.2mb 79f
2:00pm 3
mph
1016.5mb 78f
1:00pm 6
mph
1017mb 77f
12:00pm 5 6 mph 1016.8mb 76f
11:00am 5 6 mph 1017.3mb 77f
10:00am 2 3 mph 1017.4mb 77f
9:00am 3
mph
1017.4mb 75f
8:00am  -  1 mph 1017.8mb 75f
7:00am  -  mph 1017.3mb 74f
6:00am 5 6 mph 1017.2mb 71f
5:00am 8 9 mph 1016.9mb 70f
4:00am 8 9 mph 1016.7mb 70f
3:00am 5 6 mph 1016.8mb 71f
2:00am 7 8 mph 1016.9mb 71f
1:00am 8
mph
1017.2mb 71f
12:00am 2
mph
1017.5mb 73f
Mon 07/27 11:00pm 3 5 mph 1016.9mb 75f
10:00pm  -  1 mph 1016.5mb 75f
9:00pm 5
mph
1016.2mb 76f
8:00pm 3
mph
1015.8mb 77f
7:00pm 3 5 mph 1015.6mb 79f
6:00pm 2 3 mph 1015.4mb 80f
5:00pm 2 3 mph 1015.7mb 80f
4:00pm 3 5 mph 1015.8mb 81f
3:00pm 7 9 mph 1016.3mb 79f
2:00pm 10 11 mph 1016.2mb 76f
1:00pm 7 10 mph 1016.6mb 76f
12:00pm 7 9 mph 1017.1mb 76f
11:00am 6
mph
1017mb 75f
10:00am 7 8 mph 1016.9mb 74f
9:00am 2
mph
1017.2mb 74f
8:00am 1 2 mph 1016.9mb 72f
7:00am 2
mph
1017mb 71f
6:00am 7 8 mph 1016.5mb 68f
5:00am 7 8 mph 1015.9mb 66f
4:00am 7 8 mph 1015.7mb 66f
3:00am 5
mph
1015.3mb 69f
2:00am 7
mph
1015mb 68f
1:00am 6
mph
1015mb 69f
12:00am 7 8 mph 1015.1mb 68f
Sun 07/26 11:00pm 7 8 mph 1014.9mb 69f
10:00pm 5
mph
1015mb 71f
9:00pm 3 5 mph 1014.9mb 72f
8:00pm 6 8 mph 1014.7mb 74f
7:00pm 6 9 mph 1014.6mb 76f
6:00pm 7 9 mph 1014mb 76f
5:00pm 6 7 mph 1013.8mb 76f
4:00pm 8 9 mph 1014.3mb 76f
3:00pm 5 7 mph 1014.3mb 75f
2:00pm 7
mph
1014.6mb 74f
1:00pm 6 7 mph 1015mb 74f
12:00pm 5 6 mph 1014.9mb 74f
11:00am 5 6 mph 1014.9mb 72f
10:00am 6 7 mph 1014.4mb 73f
9:00am 2 3 mph 1014.7mb 72f
8:00am 3 5 mph 1014.3mb 71f
7:00am 2 3 mph 1013.9mb 71f
6:00am 3 5 mph 1013.7mb 70f
5:00am 6 8 mph 1013.1mb 71f
4:00am 5 7 mph 1012.7mb 72f
3:00am 9 10 mph 1012.5mb 72f
2:00am 15 17 mph 1012.4mb 73f
1:00am 14 17 mph 1012.3mb 74f
12:00am 13 16 mph 1012.3mb 74f
Sat 07/25 11:00pm 7 10 mph 1012.1mb 77f
10:00pm 8 14 mph 1012.2mb 78f
9:00pm 7 11 mph 1012.5mb 78f
8:00pm 8 11 mph 1012.1mb 78f
7:00pm 6 10 mph 1011.9mb 78f
6:00pm 13 15 mph 1011.7mb 78f
5:00pm 13 20 mph 1012mb 77f
4:00pm 15 17 mph 1012.2mb 77f
3:00pm 13 15 mph 1012.7mb 77f
2:00pm 13 16 mph 1013.4mb 76f
1:00pm 11 14 mph 1014.1mb 77f
12:00pm 11 14 mph 1014.5mb 77f
11:00am 13 14 mph 1014.7mb 76f